createdAt,value
2023-10-13T00:02:07.454Z,16.20
2023-10-13T00:04:39.360Z,16.10
2023-10-13T00:07:11.241Z,16.10
2023-10-13T00:09:43.491Z,16.00
2023-10-13T00:12:15.475Z,15.90
2023-10-13T00:14:47.179Z,15.90
2023-10-13T00:17:25.774Z,15.80
2023-10-13T00:20:01.180Z,15.80
2023-10-13T00:22:32.949Z,15.70
2023-10-13T00:25:05.119Z,15.60
2023-10-13T00:27:42.483Z,15.60
2023-10-13T00:30:23.790Z,15.50
2023-10-13T00:32:58.626Z,15.50
2023-10-13T00:35:37.191Z,15.40
2023-10-13T00:38:14.800Z,15.40
2023-10-13T00:40:53.555Z,15.30
2023-10-13T00:43:25.314Z,15.30
2023-10-13T00:45:58.835Z,15.30
2023-10-13T00:48:34.829Z,15.20
2023-10-13T00:51:08.099Z,15.10
2023-10-13T00:53:41.270Z,15.10
2023-10-13T00:56:28.447Z,15.10
2023-10-13T00:59:03.494Z,15.00
2023-10-13T01:01:37.622Z,15.00
2023-10-13T01:04:13.131Z,14.90
2023-10-13T01:06:47.180Z,14.90
2023-10-13T01:09:19.374Z,14.90
2023-10-13T01:11:55.445Z,14.90
2023-10-13T01:14:30.025Z,14.80
2023-10-13T01:17:02.627Z,14.80
2023-10-13T01:19:44.068Z,14.80
2023-10-13T01:22:16.058Z,14.70
2023-10-13T01:24:47.762Z,14.70
2023-10-13T01:27:21.081Z,14.70
2023-10-13T01:29:59.497Z,14.70
2023-10-13T01:32:31.374Z,14.60
2023-10-13T01:35:07.302Z,14.60
2023-10-13T01:37:39.196Z,14.60
2023-10-13T01:40:12.237Z,14.60
2023-10-13T01:42:46.602Z,14.50
2023-10-13T01:45:21.015Z,14.50
2023-10-13T01:47:52.802Z,14.50
2023-10-13T01:50:31.182Z,14.50
2023-10-13T01:53:18.474Z,14.50
2023-10-13T01:55:51.224Z,14.50
2023-10-13T01:58:24.130Z,14.50
2023-10-13T02:00:57.761Z,14.50
2023-10-13T02:03:31.258Z,14.50
2023-10-13T02:06:05.450Z,14.50
2023-10-13T02:08:44.222Z,14.40
2023-10-13T02:11:19.831Z,14.40
2023-10-13T02:13:54.710Z,14.40
2023-10-13T02:16:26.778Z,14.40
2023-10-13T02:19:05.030Z,14.40
2023-10-13T02:21:40.556Z,14.40
2023-10-13T02:24:31.490Z,14.40
2023-10-13T02:27:10.270Z,14.40
2023-10-13T02:29:42.832Z,14.30
2023-10-13T02:32:19.822Z,14.30
2023-10-13T02:34:51.488Z,14.20
2023-10-13T02:37:23.213Z,14.20
2023-10-13T02:39:58.892Z,14.20
2023-10-13T02:42:30.591Z,14.10
2023-10-13T02:45:04.576Z,14.10
2023-10-13T02:47:36.347Z,14.00
2023-10-13T02:50:13.909Z,14.00
2023-10-13T02:52:49.093Z,13.90
2023-10-13T02:55:26.809Z,13.90
2023-10-13T02:57:58.489Z,13.90
2023-10-13T03:00:33.054Z,13.80
2023-10-13T03:03:07.287Z,13.80
2023-10-13T03:05:40.340Z,13.80
2023-10-13T03:08:12.130Z,13.70
2023-10-13T03:10:48.486Z,13.70
2023-10-13T03:13:20.235Z,13.70
2023-10-13T03:15:52.109Z,13.70
2023-10-13T03:18:23.799Z,13.70
2023-10-13T03:21:00.404Z,13.60
2023-10-13T03:23:46.635Z,13.60
2023-10-13T03:26:21.480Z,13.60
2023-10-13T03:28:53.486Z,13.50
2023-10-13T03:31:29.400Z,13.50
2023-10-13T03:34:01.461Z,13.50
2023-10-13T03:36:51.533Z,13.50
2023-10-13T03:39:30.194Z,13.50
2023-10-13T03:42:06.154Z,13.50
2023-10-13T03:44:39.629Z,13.40
2023-10-13T03:47:19.436Z,13.40
2023-10-13T03:49:52.583Z,13.40
2023-10-13T03:52:26.566Z,13.40
2023-10-13T03:54:59.827Z,13.40
2023-10-13T03:57:34.804Z,13.40
2023-10-13T04:00:10.513Z,13.40
2023-10-13T04:02:47.954Z,13.40
2023-10-13T04:05:39.728Z,13.40
2023-10-13T04:08:43.769Z,13.40
2023-10-13T04:11:34.201Z,13.40
2023-10-13T04:14:25.012Z,13.40
2023-10-13T04:16:56.807Z,13.40
2023-10-13T04:19:30.507Z,13.40
2023-10-13T04:22:15.506Z,13.40
2023-10-13T04:25:02.101Z,13.40
2023-10-13T04:27:41.083Z,13.40
2023-10-13T04:30:20.632Z,13.40
2023-10-13T04:33:12.275Z,13.50
2023-10-13T04:35:49.171Z,13.50
2023-10-13T04:38:21.577Z,13.60
2023-10-13T04:41:11.159Z,13.60
2023-10-13T04:43:58.137Z,13.60
2023-10-13T04:46:47.982Z,13.60
2023-10-13T04:49:35.551Z,13.60
2023-10-13T04:52:10.325Z,13.50
2023-10-13T04:54:50.761Z,13.50
2023-10-13T04:57:27.178Z,13.50
2023-10-13T05:00:11.961Z,13.50
2023-10-13T05:03:00.986Z,13.50
2023-10-13T05:05:51.225Z,13.50
2023-10-13T05:08:44.456Z,13.40
2023-10-13T05:11:35.060Z,13.40
2023-10-13T05:14:25.511Z,13.40
2023-10-13T05:17:29.785Z,13.40
2023-10-13T05:20:20.364Z,13.30
2023-10-13T05:23:10.860Z,13.30
2023-10-13T05:26:01.409Z,13.30
2023-10-13T05:28:51.823Z,13.20
2023-10-13T05:31:42.662Z,13.20
2023-10-13T05:34:33.030Z,13.20
2023-10-13T05:37:23.424Z,13.10
2023-10-13T05:40:13.748Z,13.10
2023-10-13T05:43:04.206Z,13.10
2023-10-13T05:45:55.338Z,13.10
2023-10-13T05:48:44.048Z,13.10
2023-10-13T05:51:44.592Z,13.10
2023-10-13T05:54:16.348Z,13.10
2023-10-13T05:57:10.940Z,13.10
2023-10-13T06:00:01.429Z,13.10
2023-10-13T06:02:51.928Z,13.10
2023-10-13T06:05:42.442Z,13.10
2023-10-13T06:08:32.884Z,13.20
2023-10-13T06:11:24.812Z,13.30
2023-10-13T06:14:15.250Z,13.40
2023-10-13T06:17:05.838Z,13.40
2023-10-13T06:19:56.170Z,13.60
2023-10-13T06:22:46.809Z,13.70
2023-10-13T06:25:50.998Z,13.80
2023-10-13T06:28:41.431Z,13.90
2023-10-13T06:31:22.711Z,14.00
2023-10-13T06:33:56.792Z,14.10
2023-10-13T06:36:28.868Z,14.20
2023-10-13T06:39:19.099Z,14.20
2023-10-13T06:41:52.536Z,14.20
2023-10-13T06:44:25.599Z,14.20
2023-10-13T06:46:57.367Z,14.20
2023-10-13T06:49:30.276Z,14.20
2023-10-13T06:52:02.037Z,14.20
2023-10-13T06:54:36.760Z,14.10
2023-10-13T06:57:11.770Z,14.10
2023-10-13T06:59:43.577Z,14.10
2023-10-13T07:02:28.135Z,14.10
2023-10-13T07:05:12.730Z,14.10
2023-10-13T07:07:45.305Z,14.20
2023-10-13T07:10:17.720Z,14.20
2023-10-13T07:12:51.004Z,14.30
2023-10-13T07:15:28.320Z,14.30
2023-10-13T07:18:00.685Z,14.40
2023-10-13T07:20:33.614Z,14.50
2023-10-13T07:23:06.908Z,14.80
2023-10-13T07:25:41.251Z,15.20
2023-10-13T07:28:13.037Z,15.50
2023-10-13T07:31:11.085Z,16.00
2023-10-13T07:33:43.036Z,16.30
2023-10-13T07:36:19.326Z,16.60
2023-10-13T07:39:19.391Z,16.80
2023-10-13T07:42:04.919Z,17.00
2023-10-13T07:44:37.746Z,17.10
2023-10-13T07:47:12.149Z,17.10
2023-10-13T07:49:44.799Z,17.10
2023-10-13T07:52:24.674Z,17.10
2023-10-13T07:55:04.165Z,17.10
2023-10-13T07:57:36.193Z,17.00
2023-10-13T08:00:27.881Z,17.10
2023-10-13T08:03:11.096Z,17.10
2023-10-13T08:06:05.964Z,17.20
2023-10-13T08:08:41.684Z,17.40
2023-10-13T08:11:24.895Z,17.60
2023-10-13T08:14:12.738Z,17.70
2023-10-13T08:16:53.996Z,17.90
2023-10-13T08:19:40.965Z,18.00
2023-10-13T08:22:19.710Z,18.20
2023-10-13T08:24:53.139Z,18.20
2023-10-13T08:27:36.014Z,18.40
2023-10-13T08:30:44.345Z,18.50
2023-10-13T08:33:19.105Z,18.70
2023-10-13T08:36:16.718Z,18.80
2023-10-13T08:38:56.337Z,19.00
2023-10-13T08:41:30.650Z,19.20
2023-10-13T08:44:04.827Z,19.40
2023-10-13T08:47:01.004Z,19.50
2023-10-13T08:49:41.105Z,19.60
2023-10-13T08:52:35.316Z,19.80
2023-10-13T08:55:25.972Z,19.90
2023-10-13T08:58:04.163Z,20.00
2023-10-13T09:00:54.479Z,20.10
2023-10-13T09:03:41.005Z,20.30
2023-10-13T09:06:16.205Z,20.50
2023-10-13T09:09:20.677Z,20.60
2023-10-13T09:11:54.800Z,20.70
2023-10-13T09:14:36.927Z,20.80
2023-10-13T09:17:09.890Z,21.00
2023-10-13T09:19:57.475Z,21.10
2023-10-13T09:22:36.733Z,21.40
2023-10-13T09:25:14.573Z,21.70
2023-10-13T09:27:54.566Z,22.10
2023-10-13T09:30:29.709Z,22.80
2023-10-13T09:33:05.991Z,24.00
2023-10-13T09:35:40.634Z,25.10
2023-10-13T09:38:12.886Z,26.00
2023-10-13T09:40:51.817Z,26.90
2023-10-13T09:43:23.787Z,27.60
2023-10-13T09:46:08.736Z,27.90
2023-10-13T09:48:44.966Z,28.50
2023-10-13T09:51:25.870Z,28.60
2023-10-13T09:54:30.548Z,28.90
2023-10-13T09:57:11.138Z,29.60
2023-10-13T09:59:54.157Z,30.00
2023-10-13T10:02:28.916Z,29.80
2023-10-13T10:05:22.530Z,29.50
2023-10-13T10:08:00.393Z,29.30
2023-10-13T10:10:54.448Z,29.80
2023-10-13T10:13:42.625Z,30.70
2023-10-13T10:16:20.956Z,31.10
2023-10-13T10:19:02.918Z,31.10
2023-10-13T10:21:38.539Z,30.90
2023-10-13T10:24:31.346Z,30.80
2023-10-13T10:27:05.479Z,31.10
2023-10-13T10:29:37.171Z,31.50
2023-10-13T10:32:15.410Z,31.80
2023-10-13T10:34:47.995Z,31.70
2023-10-13T10:37:20.227Z,31.60
2023-10-13T10:39:58.086Z,31.60
2023-10-13T10:42:30.444Z,31.60
2023-10-13T10:45:10.312Z,30.40
2023-10-13T10:47:49.543Z,29.90
2023-10-13T10:50:35.835Z,29.80
2023-10-13T10:53:09.938Z,29.30
2023-10-13T10:55:42.462Z,28.70
2023-10-13T10:58:29.822Z,28.50
2023-10-13T11:01:20.271Z,28.20
2023-10-13T11:03:58.536Z,27.70
2023-10-13T11:06:39.211Z,28.40
2023-10-13T11:09:22.412Z,28.90
2023-10-13T11:11:55.256Z,29.10
2023-10-13T11:14:30.774Z,29.10
2023-10-13T11:17:06.039Z,28.60
2023-10-13T11:19:39.433Z,27.70
2023-10-13T11:22:43.013Z,26.80
2023-10-13T11:25:31.420Z,26.20
2023-10-13T11:28:29.848Z,26.00
2023-10-13T11:31:05.894Z,26.00
2023-10-13T11:33:47.551Z,26.00
2023-10-13T11:36:22.846Z,25.90
2023-10-13T11:38:58.912Z,25.80
2023-10-13T11:41:35.518Z,25.80
2023-10-13T11:44:07.260Z,25.90
2023-10-13T11:46:39.575Z,25.90
2023-10-13T11:49:33.517Z,25.90
2023-10-13T11:52:17.453Z,25.80
2023-10-13T11:54:49.493Z,25.90
2023-10-13T11:57:22.454Z,25.90
2023-10-13T11:59:54.373Z,25.90
2023-10-13T12:02:26.214Z,25.80
2023-10-13T12:05:00.930Z,25.90
2023-10-13T12:07:49.690Z,25.90
2023-10-13T12:10:50.674Z,26.00
2023-10-13T12:13:22.455Z,26.00
2023-10-13T12:15:57.830Z,26.00
2023-10-13T12:18:29.726Z,26.00
2023-10-13T12:21:09.550Z,26.00
2023-10-13T12:23:46.135Z,26.00
2023-10-13T12:26:20.643Z,26.00
2023-10-13T12:29:06.765Z,26.10
2023-10-13T12:31:40.475Z,26.10
2023-10-13T12:34:20.553Z,26.10
2023-10-13T12:37:07.038Z,26.20
2023-10-13T12:39:57.859Z,26.20
2023-10-13T12:42:48.289Z,26.30
2023-10-13T12:45:38.802Z,26.30
2023-10-13T12:48:29.374Z,26.30
2023-10-13T12:51:22.287Z,26.30
2023-10-13T12:53:54.941Z,26.20
2023-10-13T12:56:29.845Z,26.30
2023-10-13T12:59:01.545Z,26.40
2023-10-13T13:01:36.271Z,26.50
2023-10-13T13:04:12.827Z,26.50
2023-10-13T13:06:44.495Z,26.50
2023-10-13T13:09:16.657Z,26.50
2023-10-13T13:11:50.129Z,26.60
2023-10-13T13:14:21.955Z,26.50
2023-10-13T13:16:53.855Z,26.50
2023-10-13T13:19:27.170Z,26.50
2023-10-13T13:21:58.964Z,26.40
2023-10-13T13:24:31.096Z,26.40
2023-10-13T13:27:06.357Z,26.50
2023-10-13T13:29:38.855Z,26.50
2023-10-13T13:32:26.177Z,26.40
2023-10-13T13:35:24.417Z,26.40
2023-10-13T13:38:06.150Z,26.40
2023-10-13T13:40:39.211Z,26.40
2023-10-13T13:43:19.516Z,26.30
2023-10-13T13:45:51.263Z,26.30
2023-10-13T13:48:22.963Z,26.20
2023-10-13T13:51:00.929Z,26.20
2023-10-13T13:53:35.900Z,26.10
2023-10-13T13:56:08.014Z,26.10
2023-10-13T13:58:39.721Z,26.00
2023-10-13T14:01:19.690Z,26.00
2023-10-13T14:03:52.017Z,26.00
2023-10-13T14:06:26.250Z,26.00
2023-10-13T14:09:15.483Z,26.00
2023-10-13T14:11:56.094Z,26.00
2023-10-13T14:14:27.868Z,26.00
2023-10-13T14:17:09.035Z,26.00
2023-10-13T14:19:45.083Z,26.10
2023-10-13T14:22:16.878Z,26.00
2023-10-13T14:24:52.718Z,26.00
2023-10-13T14:27:24.648Z,26.00
2023-10-13T14:29:57.382Z,26.00
2023-10-13T14:32:29.671Z,26.00
2023-10-13T14:35:01.691Z,26.00
2023-10-13T14:37:33.557Z,26.00
2023-10-13T14:40:05.768Z,25.90
2023-10-13T14:42:37.422Z,25.90
2023-10-13T14:45:17.549Z,25.80
2023-10-13T14:47:49.230Z,25.80
2023-10-13T14:50:21.473Z,25.70
2023-10-13T14:52:53.421Z,25.60
2023-10-13T14:55:39.231Z,25.60
2023-10-13T14:58:13.775Z,25.60
2023-10-13T15:00:46.472Z,25.50
2023-10-13T15:03:19.613Z,25.50
2023-10-13T15:05:51.396Z,25.50
2023-10-13T15:08:23.159Z,25.40
2023-10-13T15:10:54.925Z,25.20
2023-10-13T15:13:26.751Z,25.10
2023-10-13T15:15:58.967Z,25.00
2023-10-13T15:18:30.779Z,25.00
2023-10-13T15:21:02.433Z,24.70
2023-10-13T15:23:34.531Z,24.50
2023-10-13T15:26:10.713Z,24.50
2023-10-13T15:28:54.705Z,24.60
2023-10-13T15:31:35.558Z,24.60
2023-10-13T15:34:16.472Z,24.60
2023-10-13T15:36:48.385Z,24.40
2023-10-13T15:39:24.890Z,24.20
2023-10-13T15:42:00.460Z,23.90
2023-10-13T15:44:35.904Z,23.70
2023-10-13T15:49:43.344Z,23.20
2023-10-13T15:52:17.071Z,23.10
2023-10-13T15:54:48.988Z,23.20
2023-10-13T15:57:20.786Z,23.20
2023-10-13T15:59:52.660Z,23.10
2023-10-13T16:02:25.145Z,23.00
2023-10-13T16:05:00.812Z,23.10
2023-10-13T16:07:35.255Z,23.00
2023-10-13T16:10:12.579Z,22.80
2023-10-13T16:12:46.009Z,22.70
2023-10-13T16:15:19.484Z,22.60
2023-10-13T16:17:54.611Z,22.60
2023-10-13T16:20:26.455Z,22.50
2023-10-13T16:22:58.340Z,22.20
2023-10-13T16:25:30.051Z,21.90
2023-10-13T16:28:01.798Z,21.60
2023-10-13T16:30:33.587Z,21.30
2023-10-13T16:33:06.194Z,21.00
2023-10-13T16:35:37.881Z,20.80
2023-10-13T16:38:11.840Z,20.60
2023-10-13T16:40:43.632Z,20.40
2023-10-13T16:43:15.358Z,20.20
2023-10-13T16:45:47.265Z,20.00
2023-10-13T16:48:19.794Z,19.90
2023-10-13T16:50:51.547Z,19.80
2023-10-13T16:53:23.545Z,19.60
2023-10-13T16:55:58.887Z,19.50
2023-10-13T16:58:34.948Z,19.40
2023-10-13T17:01:14.040Z,19.30
2023-10-13T17:03:46.271Z,19.20
2023-10-13T17:06:18.853Z,19.10
2023-10-13T17:08:52.105Z,19.00
2023-10-13T17:11:25.574Z,18.90
2023-10-13T17:13:57.653Z,18.80
2023-10-13T17:16:32.970Z,18.70
2023-10-13T17:19:05.430Z,18.70
2023-10-13T17:21:37.199Z,18.60
2023-10-13T17:24:09.170Z,18.60
2023-10-13T17:26:40.896Z,18.50
2023-10-13T17:29:12.624Z,18.40
2023-10-13T17:31:44.467Z,18.40
2023-10-13T17:34:18.169Z,18.30
2023-10-13T17:36:50.300Z,18.30
2023-10-13T17:39:22.187Z,18.20
2023-10-13T17:41:54.803Z,18.10
2023-10-13T17:44:27.117Z,18.10
2023-10-13T17:46:58.880Z,18.00
2023-10-13T17:49:30.564Z,17.90
2023-10-13T17:52:05.593Z,17.90
2023-10-13T17:54:37.541Z,17.80
2023-10-13T17:57:09.278Z,17.70
2023-10-13T17:59:40.923Z,17.70
2023-10-13T18:02:18.055Z,17.60
2023-10-13T18:04:49.912Z,17.50
2023-10-13T18:07:22.549Z,17.50
2023-10-13T18:09:56.929Z,17.40
2023-10-13T18:12:28.691Z,17.40
2023-10-13T18:15:00.490Z,17.30
2023-10-13T18:17:33.531Z,17.30
2023-10-13T18:20:11.225Z,17.30
2023-10-13T18:22:43.280Z,17.20
2023-10-13T18:25:15.285Z,17.20
2023-10-13T18:27:48.262Z,17.10
2023-10-13T18:30:23.045Z,17.10
2023-10-13T18:32:55.865Z,17.10
2023-10-13T18:35:27.851Z,17.00
2023-10-13T18:38:05.399Z,17.00
2023-10-13T18:40:37.697Z,17.00
2023-10-13T18:43:10.201Z,17.00
2023-10-13T18:45:42.107Z,17.00
2023-10-13T18:48:15.429Z,17.00
2023-10-13T18:50:47.127Z,16.90
2023-10-13T18:53:18.974Z,16.80
2023-10-13T18:55:50.781Z,16.80
2023-10-13T18:58:22.433Z,16.80
2023-10-13T19:00:54.226Z,16.70
2023-10-13T19:03:28.254Z,16.70
2023-10-13T19:06:00.008Z,16.70
2023-10-13T19:08:34.324Z,16.70
2023-10-13T19:11:09.514Z,16.60
2023-10-13T19:13:44.701Z,16.60
2023-10-13T19:16:17.808Z,16.50
2023-10-13T19:18:49.730Z,16.60
2023-10-13T19:21:22.397Z,16.60
2023-10-13T19:23:54.828Z,16.60
2023-10-13T19:26:28.589Z,16.60
2023-10-13T19:29:01.649Z,16.60
2023-10-13T19:31:35.133Z,16.80
2023-10-13T19:34:07.514Z,16.90
2023-10-13T19:36:39.321Z,17.10
2023-10-13T19:39:19.936Z,17.20
2023-10-13T19:41:51.589Z,17.40
2023-10-13T19:44:26.389Z,17.50
2023-10-13T19:46:58.122Z,17.80
2023-10-13T19:49:29.864Z,17.90
2023-10-13T19:52:01.599Z,17.90
2023-10-13T19:54:33.534Z,17.90
2023-10-13T19:57:06.168Z,18.10
2023-10-13T19:59:38.271Z,18.10
2023-10-13T20:02:10.231Z,18.10
2023-10-13T20:04:41.930Z,18.00
2023-10-13T20:07:13.790Z,18.10
2023-10-13T20:09:45.527Z,18.30
2023-10-13T20:12:17.266Z,18.50
2023-10-13T20:14:49.014Z,18.40
2023-10-13T20:17:20.937Z,18.30
2023-10-13T20:19:52.696Z,18.30
2023-10-13T20:22:24.387Z,18.20
2023-10-13T20:24:56.180Z,18.10
2023-10-13T20:27:28.664Z,18.00
2023-10-13T20:30:09.458Z,18.00
2023-10-13T20:32:41.189Z,17.90
2023-10-13T20:35:13.316Z,18.00
2023-10-13T20:37:45.023Z,18.10
2023-10-13T20:40:19.685Z,18.10
2023-10-13T20:42:52.271Z,18.00
2023-10-13T20:45:24.411Z,17.90
2023-10-13T20:47:56.372Z,17.80
2023-10-13T20:50:28.009Z,17.70
2023-10-13T20:53:03.298Z,17.70
2023-10-13T20:55:38.705Z,17.70
2023-10-13T20:58:10.617Z,17.70
2023-10-13T21:00:44.899Z,17.60
2023-10-13T21:03:18.111Z,17.50
2023-10-13T21:05:50.384Z,17.50
2023-10-13T21:08:23.013Z,17.40
2023-10-13T21:10:54.745Z,17.30
2023-10-13T21:13:27.984Z,17.20
2023-10-13T21:16:00.884Z,17.10
2023-10-13T21:18:32.678Z,17.00
2023-10-13T21:21:16.964Z,16.90
2023-10-13T21:23:50.111Z,16.90
2023-10-13T21:26:31.335Z,16.90
2023-10-13T21:29:08.949Z,16.90
2023-10-13T21:31:41.262Z,16.90
2023-10-13T21:34:13.774Z,17.00
2023-10-13T21:36:45.817Z,17.00
2023-10-13T21:39:17.506Z,17.00
2023-10-13T21:41:49.211Z,16.90
2023-10-13T21:44:20.871Z,16.90
2023-10-13T21:46:52.722Z,16.80
2023-10-13T21:49:24.434Z,16.80
2023-10-13T21:51:56.186Z,16.70
2023-10-13T21:54:27.941Z,16.70
2023-10-13T21:56:59.646Z,16.70
2023-10-13T21:59:31.624Z,16.70
2023-10-13T22:02:03.500Z,16.70
2023-10-13T22:04:35.304Z,16.70
2023-10-13T22:07:07.247Z,16.70
2023-10-13T22:09:39.534Z,16.70
2023-10-13T22:12:11.280Z,16.70
2023-10-13T22:14:43.122Z,16.80
2023-10-13T22:17:16.720Z,16.90
2023-10-13T22:19:51.801Z,17.00
2023-10-13T22:22:23.531Z,17.00
2023-10-13T22:24:56.060Z,17.00
2023-10-13T22:27:28.209Z,17.10
2023-10-13T22:29:59.903Z,17.10
2023-10-13T22:32:31.675Z,17.20
2023-10-13T22:35:03.696Z,17.20
2023-10-13T22:37:35.960Z,17.20
2023-10-13T22:40:10.614Z,17.30
2023-10-13T22:42:44.445Z,17.50
2023-10-13T22:45:20.771Z,17.60
2023-10-13T22:47:57.884Z,18.00
2023-10-13T22:50:31.788Z,18.30
2023-10-13T22:53:06.705Z,18.40
2023-10-13T22:55:44.902Z,18.60
2023-10-13T22:58:16.767Z,18.80
2023-10-13T23:00:55.802Z,19.00
2023-10-13T23:03:42.997Z,19.10
2023-10-13T23:06:22.160Z,19.00
2023-10-13T23:08:55.352Z,18.90
2023-10-13T23:11:39.559Z,18.80
2023-10-13T23:14:13.735Z,18.80
2023-10-13T23:16:47.301Z,18.80
2023-10-13T23:19:28.902Z,18.70
2023-10-13T23:22:00.686Z,18.60
2023-10-13T23:24:32.894Z,18.60
2023-10-13T23:27:06.249Z,18.60
2023-10-13T23:29:38.023Z,18.70
2023-10-13T23:32:09.843Z,18.80
2023-10-13T23:34:41.568Z,18.90
2023-10-13T23:37:15.825Z,19.10
2023-10-13T23:39:47.783Z,19.20
2023-10-13T23:42:24.911Z,19.20
2023-10-13T23:45:07.625Z,19.10
2023-10-13T23:47:48.030Z,19.00
2023-10-13T23:50:28.753Z,18.80
2023-10-13T23:53:00.652Z,18.70
2023-10-13T23:55:35.754Z,18.60
2023-10-13T23:58:07.649Z,18.60
